createdAt,value
2023-01-25T00:02:23.046Z,102792.10
2023-01-25T00:06:00.131Z,102789.34
2023-01-25T00:09:27.890Z,102782.59
2023-01-25T00:12:57.615Z,102774.15
2023-01-25T00:16:25.768Z,102769.95
2023-01-25T00:19:53.561Z,102764.05
2023-01-25T00:23:20.679Z,102757.94
2023-01-25T00:26:48.983Z,102760.02
2023-01-25T00:30:18.518Z,102760.13
2023-01-25T00:33:52.118Z,102758.67
2023-01-25T00:37:31.716Z,102753.99
2023-01-25T00:41:00.820Z,102755.67
2023-01-25T00:44:31.357Z,102758.08
2023-01-25T00:47:59.885Z,102753.89
2023-01-25T00:51:29.523Z,102742.52
2023-01-25T00:54:57.730Z,102738.83
2023-01-25T00:58:29.452Z,102737.92
2023-01-25T01:01:56.832Z,102729.45
2023-01-25T01:05:27.967Z,102730.47
2023-01-25T01:08:59.008Z,102734.88
2023-01-25T01:12:26.537Z,102729.08
2023-01-25T01:15:54.095Z,102727.13
2023-01-25T01:19:22.041Z,102717.02
2023-01-25T01:22:55.521Z,102708.27
2023-01-25T01:26:25.318Z,102703.55
2023-01-25T01:29:52.508Z,102702.23
2023-01-25T01:33:20.826Z,102704.02
2023-01-25T01:36:48.526Z,102705.92
2023-01-25T01:40:19.346Z,102702.27
2023-01-25T01:43:49.051Z,102708.27
2023-01-25T01:47:20.611Z,102704.64
2023-01-25T01:50:50.084Z,102698.68
2023-01-25T01:54:24.408Z,102694.52
2023-01-25T01:57:55.391Z,102690.79
2023-01-25T02:01:22.155Z,102685.45
2023-01-25T02:04:51.658Z,102678.75
2023-01-25T02:08:18.875Z,102676.61
2023-01-25T02:11:46.192Z,102669.15
2023-01-25T02:15:15.283Z,102670.63
2023-01-25T02:18:42.478Z,102665.70
2023-01-25T02:22:16.671Z,102661.48
2023-01-25T02:25:43.435Z,102657.73
2023-01-25T02:29:11.368Z,102658.52
2023-01-25T02:32:38.609Z,102658.32
2023-01-25T02:36:23.406Z,102657.95
2023-01-25T02:39:52.735Z,102651.05
2023-01-25T02:43:21.891Z,102646.70
2023-01-25T02:46:49.071Z,102641.39
2023-01-25T02:50:16.429Z,102638.65
2023-01-25T02:53:43.381Z,102635.44
2023-01-25T02:57:10.735Z,102634.82
2023-01-25T03:00:43.181Z,102629.03
2023-01-25T03:04:11.540Z,102625.41
2023-01-25T03:07:38.515Z,102618.17
2023-01-25T03:11:07.989Z,102620.64
2023-01-25T03:14:35.583Z,102620.15
2023-01-25T03:18:04.370Z,102617.58
2023-01-25T03:21:31.844Z,102611.92
2023-01-25T03:24:59.062Z,102605.67
2023-01-25T03:28:26.233Z,102590.69
2023-01-25T03:31:54.176Z,102586.38
2023-01-25T03:35:26.671Z,102579.13
2023-01-25T03:38:53.664Z,102572.66
2023-01-25T03:42:24.944Z,102569.26
2023-01-25T03:46:01.514Z,102564.74
2023-01-25T03:49:29.583Z,102561.13
2023-01-25T03:53:02.547Z,102547.88
2023-01-25T03:56:31.453Z,102542.51
2023-01-25T04:00:08.624Z,102537.33
2023-01-25T04:03:44.224Z,102536.85
2023-01-25T04:07:11.768Z,102537.18
2023-01-25T04:10:39.647Z,102534.09
2023-01-25T04:14:07.729Z,102525.88
2023-01-25T04:17:42.384Z,102518.55
2023-01-25T04:21:18.812Z,102520.11
2023-01-25T04:24:45.519Z,102517.30
2023-01-25T04:28:12.964Z,102514.63
2023-01-25T04:31:40.066Z,102514.91
2023-01-25T04:35:07.766Z,102520.00
2023-01-25T04:38:35.638Z,102520.05
2023-01-25T04:42:03.436Z,102516.17
2023-01-25T04:45:30.668Z,102518.81
2023-01-25T04:48:58.012Z,102516.69
2023-01-25T04:52:25.301Z,102513.91
2023-01-25T04:55:52.720Z,102514.33
2023-01-25T04:59:20.127Z,102507.94
2023-01-25T05:02:48.183Z,102508.39
2023-01-25T05:06:15.499Z,102508.80
2023-01-25T05:09:42.329Z,102512.27
2023-01-25T05:13:10.258Z,102514.42
2023-01-25T05:16:38.393Z,102512.18
2023-01-25T05:20:08.531Z,102508.35
2023-01-25T05:23:35.388Z,102506.52
2023-01-25T05:27:08.281Z,102510.23
2023-01-25T05:30:55.013Z,102509.80
2023-01-25T05:34:26.307Z,102510.19
2023-01-25T05:37:57.698Z,102509.41
2023-01-25T05:41:25.323Z,102507.15
2023-01-25T05:44:55.983Z,102497.02
2023-01-25T05:48:24.087Z,102495.20
2023-01-25T05:51:51.834Z,102498.00
2023-01-25T05:55:19.827Z,102500.84
2023-01-25T05:58:47.607Z,102495.38
2023-01-25T06:02:14.453Z,102496.08
2023-01-25T06:05:45.781Z,102496.05
2023-01-25T06:09:13.701Z,102492.82
2023-01-25T06:12:41.299Z,102489.95
2023-01-25T06:16:08.890Z,102489.63
2023-01-25T06:19:41.955Z,102485.56
2023-01-25T06:23:45.225Z,102478.18
2023-01-25T06:27:13.541Z,102477.69
2023-01-25T06:30:40.360Z,102479.52
2023-01-25T06:34:08.653Z,102486.25
2023-01-25T06:37:35.474Z,102484.06
2023-01-25T06:41:04.636Z,102479.05
2023-01-25T06:44:35.130Z,102475.98
2023-01-25T06:48:01.982Z,102473.36
2023-01-25T06:51:29.309Z,102471.80
2023-01-25T06:54:55.945Z,102467.91
2023-01-25T06:58:22.943Z,102462.95
2023-01-25T07:01:50.520Z,102465.25
2023-01-25T07:05:17.032Z,102455.76
2023-01-25T07:08:44.510Z,102454.36
2023-01-25T07:12:12.251Z,102458.80
2023-01-25T07:15:38.876Z,102453.88
2023-01-25T07:19:05.689Z,102450.48
2023-01-25T07:22:32.707Z,102439.88
2023-01-25T07:25:59.530Z,102430.30
2023-01-25T07:29:26.492Z,102433.87
2023-01-25T07:32:52.820Z,102432.77
2023-01-25T07:36:20.033Z,102428.68
2023-01-25T07:39:49.963Z,102425.39
2023-01-25T07:43:16.681Z,102424.57
2023-01-25T07:46:43.152Z,102419.70
2023-01-25T07:50:13.133Z,102415.44
2023-01-25T07:53:39.867Z,102417.27
2023-01-25T07:57:07.085Z,102414.19
2023-01-25T08:00:34.358Z,102406.33
2023-01-25T08:04:02.883Z,102409.70
2023-01-25T08:07:31.365Z,102404.88
2023-01-25T08:10:58.007Z,102398.22
2023-01-25T08:14:25.320Z,102393.01
2023-01-25T08:17:52.526Z,102392.52
2023-01-25T08:21:19.909Z,102391.04
2023-01-25T08:24:48.080Z,102388.14
2023-01-25T08:28:14.456Z,102386.86
2023-01-25T08:31:44.136Z,102390.40
2023-01-25T08:35:12.793Z,102392.73
2023-01-25T08:38:41.275Z,102389.65
2023-01-25T08:42:08.719Z,102376.06
2023-01-25T08:45:37.365Z,102370.14
2023-01-25T08:49:05.581Z,102372.10
2023-01-25T08:52:34.597Z,102370.70
2023-01-25T08:56:06.483Z,102369.39
2023-01-25T08:59:34.750Z,102368.23
2023-01-25T09:03:01.536Z,102375.07
2023-01-25T09:06:28.801Z,102376.48
2023-01-25T09:09:55.769Z,102378.09
2023-01-25T09:13:22.932Z,102375.55
2023-01-25T09:16:49.731Z,102378.54
2023-01-25T09:20:17.268Z,102375.98
2023-01-25T09:23:51.601Z,102369.19
2023-01-25T09:27:31.670Z,102357.83
2023-01-25T09:31:19.924Z,102359.96
2023-01-25T09:35:31.758Z,102356.14
2023-01-25T09:38:58.888Z,102354.21
2023-01-25T09:42:52.986Z,102347.73
2023-01-25T09:46:27.698Z,102345.66
2023-01-25T09:50:15.449Z,102339.55
2023-01-25T09:53:44.867Z,102338.41
2023-01-25T09:57:19.277Z,102336.28
2023-01-25T10:00:51.341Z,102337.40
2023-01-25T10:04:24.139Z,102332.15
2023-01-25T10:07:59.747Z,102332.44
2023-01-25T10:11:29.475Z,102326.95
2023-01-25T10:14:58.062Z,102322.44
2023-01-25T10:18:32.614Z,102315.13
2023-01-25T10:22:02.525Z,102306.72
2023-01-25T10:25:37.251Z,102304.37
2023-01-25T10:29:12.136Z,102303.11
2023-01-25T10:32:51.105Z,102299.48
2023-01-25T10:36:31.213Z,102291.09
2023-01-25T10:40:06.657Z,102280.31
2023-01-25T10:43:33.334Z,102274.65
2023-01-25T10:47:07.672Z,102271.00
2023-01-25T10:50:50.517Z,102266.63
2023-01-25T10:54:19.469Z,102254.30
2023-01-25T10:57:53.902Z,102244.95
2023-01-25T11:01:32.639Z,102243.35
2023-01-25T11:05:01.344Z,102235.39
2023-01-25T11:08:34.864Z,102229.72
2023-01-25T11:12:01.292Z,102230.40
2023-01-25T11:15:28.664Z,102229.02
2023-01-25T11:18:57.347Z,102223.82
2023-01-25T11:22:28.908Z,102215.98
2023-01-25T11:25:55.929Z,102213.12
2023-01-25T11:29:26.242Z,102205.09
2023-01-25T11:33:01.392Z,102194.07
2023-01-25T11:36:41.521Z,102195.88
2023-01-25T11:40:21.115Z,102193.77
2023-01-25T11:44:18.265Z,102187.72
2023-01-25T11:48:06.657Z,102178.33
2023-01-25T11:51:43.298Z,102166.24
2023-01-25T11:55:28.025Z,102162.77
2023-01-25T11:59:13.778Z,102153.80
2023-01-25T12:03:07.385Z,102150.34
2023-01-25T12:06:52.882Z,102148.93
2023-01-25T12:10:40.962Z,102147.80
2023-01-25T12:14:20.760Z,102136.77
2023-01-25T12:18:30.752Z,102128.09
2023-01-25T12:22:19.865Z,102116.19
2023-01-25T12:26:06.655Z,102104.81
2023-01-25T12:29:41.790Z,102098.11
2023-01-25T12:33:17.637Z,102092.30
2023-01-25T12:36:49.817Z,102086.52
2023-01-25T12:40:20.811Z,102079.50
2023-01-25T12:43:55.546Z,102076.52
2023-01-25T12:47:33.191Z,102070.26
2023-01-25T12:51:04.828Z,102067.83
2023-01-25T12:54:46.613Z,102059.29
2023-01-25T12:58:37.135Z,102061.79
2023-01-25T13:02:29.732Z,102059.56
2023-01-25T13:06:04.153Z,102048.80
2023-01-25T13:09:37.955Z,102046.06
2023-01-25T13:13:21.329Z,102032.39
2023-01-25T13:17:01.459Z,102016.92
2023-01-25T13:20:54.437Z,102018.86
2023-01-25T13:24:28.738Z,102015.59
2023-01-25T13:28:16.098Z,102004.48
2023-01-25T13:31:53.599Z,102001.30
2023-01-25T13:35:40.764Z,101997.05
2023-01-25T13:39:45.912Z,101997.55
2023-01-25T13:43:25.068Z,101999.50
2023-01-25T13:46:56.095Z,101998.89
2023-01-25T13:50:35.035Z,101999.21
2023-01-25T13:54:09.495Z,101996.73
2023-01-25T13:57:39.484Z,101988.64
2023-01-25T14:01:09.212Z,101986.77
2023-01-25T14:04:37.532Z,101978.09
2023-01-25T14:08:10.306Z,101969.20
2023-01-25T14:11:45.734Z,101968.26
2023-01-25T14:15:23.428Z,101965.25
2023-01-25T14:18:50.618Z,101957.15
2023-01-25T14:22:34.448Z,101955.41
2023-01-25T14:26:05.930Z,101948.73
2023-01-25T14:29:34.239Z,101939.24
2023-01-25T14:33:03.640Z,101928.50
2023-01-25T14:36:33.483Z,101925.90
2023-01-25T14:40:00.265Z,101924.64
2023-01-25T14:43:27.611Z,101925.85
2023-01-25T14:47:30.519Z,101920.20
2023-01-25T14:51:12.210Z,101914.19
2023-01-25T14:54:49.623Z,101899.25
2023-01-25T14:58:22.039Z,101901.55
2023-01-25T15:01:54.531Z,101894.46
2023-01-25T15:05:25.336Z,101889.30
2023-01-25T15:08:52.784Z,101879.90
2023-01-25T15:12:33.154Z,101875.61
2023-01-25T15:16:10.778Z,101875.19
2023-01-25T15:19:53.728Z,101871.41
2023-01-25T15:23:27.609Z,101865.42
2023-01-25T15:27:01.125Z,101859.55
2023-01-25T15:30:36.052Z,101858.98
2023-01-25T15:34:18.489Z,101849.77
2023-01-25T15:37:46.314Z,101851.02
2023-01-25T15:41:15.097Z,101852.05
2023-01-25T15:44:42.491Z,101846.11
2023-01-25T15:48:16.835Z,101845.15
2023-01-25T15:51:43.700Z,101837.53
2023-01-25T15:55:15.448Z,101830.01
2023-01-25T15:58:45.770Z,101822.79
2023-01-25T16:02:15.965Z,101822.75
2023-01-25T16:05:43.154Z,101820.20
2023-01-25T16:09:22.122Z,101809.76
2023-01-25T16:12:49.456Z,101811.30
2023-01-25T16:16:23.177Z,101806.86
2023-01-25T16:19:50.484Z,101809.67
2023-01-25T16:23:17.987Z,101805.38
2023-01-25T16:26:51.559Z,101805.73
2023-01-25T16:30:24.095Z,101801.11
2023-01-25T16:33:51.695Z,101800.70
2023-01-25T16:37:20.151Z,101800.15
2023-01-25T16:40:48.855Z,101799.48
2023-01-25T16:44:17.146Z,101798.89
2023-01-25T16:47:45.287Z,101795.27
2023-01-25T16:51:21.818Z,101791.64
2023-01-25T16:54:52.261Z,101787.70
2023-01-25T16:58:21.345Z,101792.27
2023-01-25T17:01:50.613Z,101790.13
2023-01-25T17:05:18.904Z,101786.36
2023-01-25T17:08:52.852Z,101787.27
2023-01-25T17:12:21.398Z,101781.98
2023-01-25T17:15:50.707Z,101773.81
2023-01-25T17:19:22.800Z,101772.96
2023-01-25T17:22:51.527Z,101768.69
2023-01-25T17:26:22.368Z,101766.63
2023-01-25T17:29:50.306Z,101766.21
2023-01-25T17:33:17.467Z,101772.30
2023-01-25T17:36:45.133Z,101770.09
2023-01-25T17:40:15.555Z,101763.95
2023-01-25T17:43:44.062Z,101762.74
2023-01-25T17:47:10.604Z,101755.36
2023-01-25T17:50:40.037Z,101756.55
2023-01-25T17:54:10.248Z,101756.27
2023-01-25T17:57:38.244Z,101748.49
2023-01-25T18:01:14.939Z,101743.41
2023-01-25T18:04:42.232Z,101735.67
2023-01-25T18:08:12.593Z,101733.02
2023-01-25T18:11:44.466Z,101737.77
2023-01-25T18:15:13.755Z,101733.93
2023-01-25T18:18:43.001Z,101725.45
2023-01-25T18:22:13.868Z,101714.38
2023-01-25T18:25:43.070Z,101710.25
2023-01-25T18:29:38.124Z,101715.84
2023-01-25T18:33:06.215Z,101713.35
2023-01-25T18:36:32.963Z,101705.91
2023-01-25T18:40:07.355Z,101697.50
2023-01-25T18:43:35.097Z,101691.82
2023-01-25T18:47:06.015Z,101686.66
2023-01-25T18:50:41.520Z,101677.42
2023-01-25T18:54:14.999Z,101669.51
2023-01-25T18:57:42.377Z,101675.23
2023-01-25T19:01:13.937Z,101675.38
2023-01-25T19:04:46.228Z,101670.44
2023-01-25T19:08:15.672Z,101673.92
2023-01-25T19:11:43.901Z,101668.20
2023-01-25T19:15:16.393Z,101659.03
2023-01-25T19:18:47.128Z,101651.25
2023-01-25T19:22:16.227Z,101650.48
2023-01-25T19:25:43.380Z,101645.39
2023-01-25T19:29:17.280Z,101639.08
2023-01-25T19:32:49.770Z,101639.73
2023-01-25T19:36:19.374Z,101639.23
2023-01-25T19:39:50.006Z,101628.80
2023-01-25T19:43:18.906Z,101622.11
2023-01-25T19:46:59.203Z,101617.10
2023-01-25T19:50:30.910Z,101615.04
2023-01-25T19:54:06.504Z,101610.59
2023-01-25T19:57:37.538Z,101610.09
2023-01-25T20:01:29.592Z,101609.38
2023-01-25T20:05:00.922Z,101617.00
2023-01-25T20:08:37.217Z,101606.23
2023-01-25T20:12:18.823Z,101598.85
2023-01-25T20:15:55.889Z,101596.16
2023-01-25T20:19:26.956Z,101592.41
2023-01-25T20:23:06.596Z,101592.15
2023-01-25T20:26:39.494Z,101582.70
2023-01-25T20:30:09.829Z,101578.02
2023-01-25T20:33:42.071Z,101574.31
2023-01-25T20:37:17.388Z,101572.84
2023-01-25T20:40:50.285Z,101568.45
2023-01-25T20:44:30.069Z,101564.55
2023-01-25T20:48:01.361Z,101557.23
2023-01-25T20:51:36.542Z,101553.36
2023-01-25T20:55:10.561Z,101551.67
2023-01-25T20:58:39.320Z,101548.20
2023-01-25T21:02:06.836Z,101544.75
2023-01-25T21:05:34.935Z,101540.79
2023-01-25T21:09:09.714Z,101538.89
2023-01-25T21:12:38.810Z,101535.27
2023-01-25T21:16:20.396Z,101538.84
2023-01-25T21:19:52.126Z,101535.22
2023-01-25T21:23:19.204Z,101536.08
2023-01-25T21:26:48.426Z,101538.13
2023-01-25T21:30:17.626Z,101533.34
2023-01-25T21:33:45.847Z,101526.15
2023-01-25T21:37:15.861Z,101532.01
2023-01-25T21:40:43.987Z,101530.34
2023-01-25T21:44:28.368Z,101529.55
2023-01-25T21:47:58.617Z,101525.19
2023-01-25T21:51:40.108Z,101530.05
2023-01-25T21:55:12.588Z,101526.00
2023-01-25T21:58:51.592Z,101522.80
2023-01-25T22:02:18.535Z,101520.58
2023-01-25T22:05:45.424Z,101521.25
2023-01-25T22:09:14.719Z,101517.80
2023-01-25T22:12:42.550Z,101511.27
2023-01-25T22:16:11.309Z,101510.39
2023-01-25T22:19:38.989Z,101503.70
2023-01-25T22:23:07.176Z,101498.70
2023-01-25T22:26:47.637Z,101493.66
2023-01-25T22:30:16.251Z,101490.52
2023-01-25T22:33:44.947Z,101482.83
2023-01-25T22:37:14.938Z,101474.45
2023-01-25T22:40:44.382Z,101476.67
2023-01-25T22:44:11.488Z,101474.96
2023-01-25T22:47:52.587Z,101471.89
2023-01-25T22:51:28.019Z,101469.00
2023-01-25T22:54:56.104Z,101474.52
2023-01-25T22:58:23.523Z,101476.42
2023-01-25T23:01:50.791Z,101473.59
2023-01-25T23:05:18.746Z,101467.83
2023-01-25T23:08:46.398Z,101463.94
2023-01-25T23:12:15.936Z,101465.29
2023-01-25T23:15:45.685Z,101468.84
2023-01-25T23:19:15.888Z,101466.78
2023-01-25T23:22:43.900Z,101457.38
2023-01-25T23:26:10.906Z,101445.90
2023-01-25T23:29:38.571Z,101448.09
2023-01-25T23:33:05.334Z,101437.09
2023-01-25T23:36:33.920Z,101431.06
2023-01-25T23:40:00.559Z,101432.75
2023-01-25T23:43:27.681Z,101433.92
2023-01-25T23:46:55.120Z,101426.23
2023-01-25T23:50:22.537Z,101416.65
2023-01-25T23:53:49.714Z,101410.15
2023-01-25T23:57:16.749Z,101413.23
